createdAt,value
2022-08-23T00:00:49.063Z,77.54
2022-08-23T00:05:52.035Z,77.75
2022-08-23T00:10:53.383Z,77.64
2022-08-23T00:15:55.085Z,77.90
2022-08-23T00:20:57.085Z,77.72
2022-08-23T00:26:01.687Z,77.79
2022-08-23T00:31:03.390Z,77.69
2022-08-23T00:36:04.803Z,77.49
2022-08-23T00:41:06.206Z,77.71
2022-08-23T00:46:41.519Z,77.84
2022-08-23T00:51:57.399Z,77.82
2022-08-23T00:57:00.077Z,77.74
2022-08-23T01:02:02.117Z,77.99
2022-08-23T01:07:06.037Z,78.11
2022-08-23T01:12:07.443Z,78.25
2022-08-23T01:17:12.573Z,78.34
2022-08-23T01:22:21.761Z,77.93
2022-08-23T01:27:23.285Z,78.01
2022-08-23T01:32:25.639Z,77.74
2022-08-23T01:37:27.144Z,78.05
2022-08-23T01:42:28.882Z,77.92
2022-08-23T01:47:31.661Z,78.16
2022-08-23T01:52:34.622Z,77.99
2022-08-23T01:57:36.150Z,78.47
2022-08-23T02:02:40.634Z,78.33
2022-08-23T02:07:42.453Z,78.17
2022-08-23T02:12:44.220Z,78.09
2022-08-23T02:17:48.868Z,78.10
2022-08-23T02:22:50.224Z,78.37
2022-08-23T02:27:51.596Z,78.02
2022-08-23T02:32:52.987Z,78.54
2022-08-23T02:37:55.220Z,78.29
2022-08-23T02:42:56.817Z,78.35
2022-08-23T02:47:58.606Z,78.52
2022-08-23T02:53:05.388Z,78.49
2022-08-23T02:58:08.197Z,78.40
2022-08-23T03:03:09.853Z,78.52
2022-08-23T03:08:11.733Z,78.72
2022-08-23T03:13:21.058Z,78.55
2022-08-23T03:18:24.371Z,78.56
2022-08-23T03:23:26.910Z,78.62
2022-08-23T03:28:29.140Z,78.85
2022-08-23T03:33:30.473Z,78.97
2022-08-23T03:38:32.117Z,78.97
2022-08-23T03:43:34.155Z,78.83
2022-08-23T03:48:35.659Z,79.04
2022-08-23T03:53:37.109Z,79.00
2022-08-23T03:58:39.704Z,78.98
2022-08-23T04:03:41.513Z,78.91
2022-08-23T04:08:43.669Z,78.95
2022-08-23T04:13:45.057Z,78.81
2022-08-23T04:18:46.946Z,78.78
2022-08-23T04:23:50.749Z,78.89
2022-08-23T04:28:52.693Z,78.91
2022-08-23T04:33:58.803Z,79.12
2022-08-23T04:39:02.723Z,78.96
2022-08-23T04:44:05.519Z,78.77
2022-08-23T04:49:07.802Z,78.76
2022-08-23T04:54:09.566Z,78.67
2022-08-23T04:59:37.208Z,78.56
2022-08-23T05:04:38.811Z,78.69
2022-08-23T05:09:40.281Z,79.17
2022-08-23T05:14:41.725Z,78.92
2022-08-23T05:19:49.232Z,79.06
2022-08-23T05:24:50.616Z,78.94
2022-08-23T05:29:54.244Z,78.98
2022-08-23T05:34:55.759Z,78.64
2022-08-23T05:39:57.202Z,78.71
2022-08-23T05:44:59.836Z,78.69
2022-08-23T05:50:01.781Z,78.44
2022-08-23T05:55:07.348Z,78.75
2022-08-23T06:00:15.503Z,78.89
2022-08-23T06:05:29.348Z,79.01
2022-08-23T06:10:36.705Z,78.90
2022-08-23T06:15:51.461Z,79.04
2022-08-23T06:21:01.021Z,78.80
2022-08-23T06:26:14.907Z,79.06
2022-08-23T06:31:39.169Z,78.93
2022-08-23T06:36:44.757Z,79.09
2022-08-23T06:42:01.518Z,79.04
2022-08-23T06:47:05.651Z,79.03
2022-08-23T06:52:09.173Z,78.95
2022-08-23T06:57:25.101Z,78.96
2022-08-23T07:02:52.247Z,78.86
2022-08-23T07:08:12.068Z,78.92
2022-08-23T07:13:18.374Z,79.00
2022-08-23T07:18:20.590Z,78.77
2022-08-23T07:23:23.229Z,79.03
2022-08-23T07:28:25.064Z,78.57
2022-08-23T07:33:26.881Z,78.99
2022-08-23T07:38:39.826Z,79.28
2022-08-23T07:43:42.063Z,79.04
2022-08-23T07:48:53.963Z,79.10
2022-08-23T07:54:04.031Z,78.70
2022-08-23T07:59:06.836Z,79.01
2022-08-23T08:04:12.552Z,78.83
2022-08-23T08:09:16.798Z,79.29
2022-08-23T08:14:18.750Z,79.14
2022-08-23T08:19:26.339Z,79.46
2022-08-23T08:24:57.620Z,79.64
2022-08-23T08:29:59.112Z,79.39
2022-08-23T08:35:00.534Z,79.70
2022-08-23T08:40:03.528Z,79.58
2022-08-23T08:45:37.359Z,79.70
2022-08-23T08:50:41.372Z,79.73
2022-08-23T08:55:49.332Z,79.71
2022-08-23T09:00:56.492Z,79.95
2022-08-23T09:06:16.079Z,79.75
2022-08-23T09:11:17.514Z,79.78
2022-08-23T09:16:32.647Z,79.39
2022-08-23T09:21:45.865Z,79.28
2022-08-23T09:26:47.674Z,79.18
2022-08-23T09:31:53.951Z,78.90
2022-08-23T09:37:17.735Z,78.66
2022-08-23T09:42:27.540Z,78.79
2022-08-23T09:47:44.380Z,78.74
2022-08-23T09:52:47.773Z,78.54
2022-08-23T09:57:49.459Z,78.34
2022-08-23T10:02:57.512Z,78.17
2022-08-23T10:08:02.982Z,77.54
2022-08-23T10:13:06.339Z,76.76
2022-08-23T10:18:19.590Z,76.34
2022-08-23T10:23:41.485Z,76.88
2022-08-23T10:29:09.795Z,76.35
2022-08-23T10:34:30.153Z,76.55
2022-08-23T10:39:32.563Z,76.05
2022-08-23T10:44:35.925Z,75.64
2022-08-23T10:49:40.218Z,75.79
2022-08-23T10:54:48.970Z,75.75
2022-08-23T10:59:56.135Z,75.15
2022-08-23T11:05:03.916Z,75.36
2022-08-23T11:10:26.704Z,75.52
2022-08-23T11:15:37.200Z,75.73
2022-08-23T11:20:49.825Z,75.19
2022-08-23T11:25:56.068Z,74.51
2022-08-23T11:30:57.693Z,73.59
2022-08-23T11:36:09.178Z,73.30
2022-08-23T11:41:21.018Z,73.81
2022-08-23T11:46:25.777Z,74.34
2022-08-23T11:51:37.292Z,74.82
2022-08-23T11:56:38.674Z,75.13
2022-08-23T12:01:40.661Z,75.41
2022-08-23T12:06:55.775Z,75.44
2022-08-23T12:11:57.102Z,75.72
2022-08-23T12:17:03.635Z,75.98
2022-08-23T12:22:07.768Z,76.05
2022-08-23T12:27:14.878Z,76.05
2022-08-23T12:32:21.154Z,75.77
2022-08-23T12:37:34.020Z,76.00
2022-08-23T12:42:37.067Z,76.20
2022-08-23T12:47:43.122Z,75.96
2022-08-23T12:52:55.335Z,75.76
2022-08-23T12:57:58.079Z,75.90
2022-08-23T13:03:12.127Z,76.18
2022-08-23T13:08:19.778Z,76.50
2022-08-23T13:13:28.844Z,76.50
2022-08-23T13:18:41.119Z,76.64
2022-08-23T13:23:42.452Z,76.86
2022-08-23T13:28:59.366Z,76.89
2022-08-23T13:34:00.725Z,77.01
2022-08-23T13:39:05.687Z,76.95
2022-08-23T13:44:08.344Z,76.85
2022-08-23T13:49:17.732Z,77.09
2022-08-23T13:54:19.165Z,77.04
2022-08-23T13:59:38.214Z,76.90
2022-08-23T14:04:40.242Z,76.74
2022-08-23T14:09:42.420Z,76.61
2022-08-23T14:14:44.750Z,76.56
2022-08-23T14:25:08.967Z,76.81
2022-08-23T14:30:12.015Z,76.94
2022-08-23T14:35:13.375Z,76.80
2022-08-23T14:40:15.410Z,76.90
2022-08-23T14:45:17.460Z,77.04
2022-08-23T14:50:18.860Z,76.56
2022-08-23T14:55:24.741Z,76.44
2022-08-23T15:00:26.628Z,76.86
2022-08-23T15:05:28.015Z,76.73
2022-08-23T15:15:51.117Z,76.48
2022-08-23T15:20:52.686Z,76.09
2022-08-23T15:25:54.722Z,75.97
2022-08-23T15:30:56.183Z,75.21
2022-08-23T15:35:57.846Z,75.56
2022-08-23T15:41:00.434Z,75.59
2022-08-23T15:46:09.156Z,74.91
2022-08-23T15:51:10.943Z,75.48
2022-08-23T15:56:20.288Z,75.26
2022-08-23T16:01:24.709Z,75.06
2022-08-23T16:06:27.304Z,75.10
2022-08-23T16:11:28.638Z,75.58
2022-08-23T16:16:33.154Z,76.16
2022-08-23T16:21:34.606Z,76.54
2022-08-23T16:26:38.706Z,76.28
2022-08-23T16:31:43.506Z,76.79
2022-08-23T16:36:46.637Z,76.85
2022-08-23T16:41:47.960Z,77.45
2022-08-23T16:46:51.594Z,76.94
2022-08-23T16:51:53.015Z,77.26
2022-08-23T16:56:54.478Z,77.46
2022-08-23T17:01:58.302Z,77.12
2022-08-23T17:06:59.878Z,76.51
2022-08-23T17:12:02.146Z,77.05
2022-08-23T17:17:03.544Z,77.52
2022-08-23T17:22:04.926Z,78.18
2022-08-23T17:27:06.893Z,78.16
2022-08-23T17:32:09.733Z,78.38
2022-08-23T17:37:19.124Z,78.38
2022-08-23T17:42:21.313Z,78.21
2022-08-23T17:47:22.716Z,78.32
2022-08-23T17:52:26.181Z,78.11
2022-08-23T17:57:27.549Z,78.42
2022-08-23T18:02:31.671Z,78.63
2022-08-23T18:07:33.153Z,78.48
2022-08-23T18:12:34.597Z,78.52
2022-08-23T18:17:38.645Z,78.49
2022-08-23T18:22:40.166Z,78.50
2022-08-23T18:28:00.328Z,78.60
2022-08-23T18:33:02.118Z,78.72
2022-08-23T18:38:03.512Z,78.95
2022-08-23T18:43:05.069Z,79.04
2022-08-23T18:48:06.408Z,78.93
2022-08-23T18:53:07.934Z,79.01
2022-08-23T18:58:09.345Z,79.03
2022-08-23T19:03:12.165Z,79.05
2022-08-23T19:08:13.993Z,79.13
2022-08-23T19:13:16.521Z,79.23
2022-08-23T19:18:17.824Z,79.31
2022-08-23T19:23:21.241Z,79.32
2022-08-23T19:28:23.831Z,79.27
2022-08-23T19:33:25.210Z,79.46
2022-08-23T19:38:27.739Z,79.47
2022-08-23T19:43:29.168Z,79.48
2022-08-23T19:48:33.044Z,79.72
2022-08-23T19:53:34.979Z,79.62
2022-08-23T19:58:36.373Z,79.53
2022-08-23T20:03:37.699Z,79.65
2022-08-23T20:08:39.195Z,79.71
2022-08-23T20:13:41.141Z,79.70
2022-08-23T20:18:43.097Z,79.66
2022-08-23T20:24:03.683Z,79.73
2022-08-23T20:29:05.466Z,79.81
2022-08-23T20:34:08.352Z,79.85
2022-08-23T20:39:10.742Z,79.85
2022-08-23T20:44:12.125Z,79.86
2022-08-23T20:49:13.461Z,79.87
2022-08-23T20:54:14.841Z,79.72
2022-08-23T20:59:16.567Z,79.93
2022-08-23T21:04:18.719Z,79.75
2022-08-23T21:09:22.500Z,79.88
2022-08-23T21:14:24.453Z,79.99
2022-08-23T21:19:25.884Z,80.09
2022-08-23T21:24:27.280Z,80.00
2022-08-23T21:29:28.601Z,79.90
2022-08-23T21:34:29.992Z,79.78
2022-08-23T21:39:31.353Z,79.83
2022-08-23T21:44:32.681Z,79.89
2022-08-23T21:49:35.077Z,79.79
2022-08-23T21:54:39.207Z,79.79
2022-08-23T21:59:44.223Z,79.85
2022-08-23T22:04:45.763Z,79.87
2022-08-23T22:09:47.241Z,79.94
2022-08-23T22:14:48.612Z,79.77
2022-08-23T22:19:51.097Z,79.95
2022-08-23T22:24:53.931Z,79.85
2022-08-23T22:29:55.470Z,79.89
2022-08-23T22:34:58.150Z,79.83
2022-08-23T22:39:59.530Z,79.86
2022-08-23T22:45:01.138Z,79.99
2022-08-23T22:50:03.481Z,79.87
2022-08-23T22:55:05.283Z,80.06
2022-08-23T23:00:11.181Z,79.95
2022-08-23T23:05:12.770Z,80.08
2022-08-23T23:10:15.060Z,79.72
2022-08-23T23:15:16.426Z,79.78
2022-08-23T23:20:36.585Z,79.80
2022-08-23T23:25:37.987Z,79.94
2022-08-23T23:30:39.422Z,79.98
2022-08-23T23:35:42.655Z,79.83
2022-08-23T23:40:44.225Z,79.78
2022-08-23T23:45:45.657Z,79.79
2022-08-23T23:50:47.100Z,79.76
2022-08-23T23:55:48.721Z,79.45
